Главная страница
METAR-TAF:

METAR-TAF

Аэропорты :

Международный аэропорт имени Хосе Марти

Гавана, Куба

широта: 22-59N, долгота: 082-24W, высота над уровнем моря: 59 м

Текущие метеонаблюдения

Эта сводка был подготовлена 48 минут назад, в 21:55 UTC
Ветер 2 Узел переменных направлений
Температура 25°C
Влажность 89%
Давление 1015 hPa
Видимость: 9000 м
Отдельные облака на высоте 2000 фута

METAR: MUHA 222155Z VRB02KT 9000 SCT020 25/23 Q1015

Время: 18:43 (22:43 UTC)

Прогноз

Эта сводка был подготовлена 5 часа и 43 минут назад, в 17:00 UTC
Прогноз действительный с 22-го 18 UTC до 23-го 18 UTC
Ветер 5 Узел от юго-юго-восточный
Видимость: 9000 м
небольшая облачность на высоте 3000 фута
временами
С 22-го 20 UTC до 22-го 23 UTC
Видимость: 4000 м
Отдельные облака на высоте 1800 фута, Кучево-дождевые.
Рассеянная облачность на высоте 2000 фута
гроза, дождь

TAF: MUHA 221700Z 2218/2318 16005KT 9000 FEW030 TEMPO 2220/2223 4000 TSRA SCT018CB BKN020

Метеонаблюдения и прогнозы для более 4000 аэропортов (сводки METAR и TAF).

Имеющиеся станции представлены на карте желтыми и красными точками.

Чтобы увидеть название станции, наведите на нее мышь.

Затем щелкните, чтобы увидеть метеонаблюдения и метеопрогнозы.

Управление картой: чтобы увеличить масштаб, щелкните зеленые кнопки с черным крестиком; чтобы уменьшить масштаб, щелкните зеленую кнопку с тире; для просмотра соседних карт щелкайте зеленые стрелки.


METAR-TAF: